sensor_id;sensor_type;location;lat;lon;timestamp;pressure;altitude;pressure_sealevel;temperature;humidity
23176;BME280;19910;42.652;23.332;2023-01-28T00:01:53;94010.22;;;-0.02;94.78
23176;BME280;19910;42.652;23.332;2023-01-28T00:04:20;94013.63;;;0.04;94.41
23176;BME280;19910;42.652;23.332;2023-01-28T00:06:47;94014.41;;;0.05;94.68
23176;BME280;19910;42.652;23.332;2023-01-28T00:09:14;94015.44;;;0.09;94.78
23176;BME280;19910;42.652;23.332;2023-01-28T00:11:40;94016.50;;;0.13;95.24
23176;BME280;19910;42.652;23.332;2023-01-28T00:14:09;94025.84;;;0.05;94.45
23176;BME280;19910;42.652;23.332;2023-01-28T00:16:39;94037.81;;;0.08;94.38
23176;BME280;19910;42.652;23.332;2023-01-28T00:19:05;94028.31;;;-0.04;94.79
23176;BME280;19910;42.652;23.332;2023-01-28T00:21:33;94040.56;;;-0.03;95.01
23176;BME280;19910;42.652;23.332;2023-01-28T00:24:00;94042.69;;;-0.05;95.30
23176;BME280;19910;42.652;23.332;2023-01-28T00:26:27;94040.28;;;-0.01;95.15
23176;BME280;19910;42.652;23.332;2023-01-28T00:28:55;94040.22;;;0.04;94.69
23176;BME280;19910;42.652;23.332;2023-01-28T00:31:23;94036.25;;;0.02;94.61
23176;BME280;19910;42.652;23.332;2023-01-28T00:33:54;94044.75;;;0.04;94.55
23176;BME280;19910;42.652;23.332;2023-01-28T00:36:23;94051.72;;;-0.01;94.43
23176;BME280;19910;42.652;23.332;2023-01-28T00:38:51;94046.34;;;0.05;94.77
23176;BME280;19910;42.652;23.332;2023-01-28T00:41:19;94039.94;;;0.11;94.00
23176;BME280;19910;42.652;23.332;2023-01-28T00:43:50;94049.53;;;0.07;94.15
23176;BME280;19910;42.652;23.332;2023-01-28T00:46:17;94057.97;;;0.19;94.20
23176;BME280;19910;42.652;23.332;2023-01-28T00:48:44;94046.53;;;0.18;93.71
23176;BME280;19910;42.652;23.332;2023-01-28T00:51:15;94053.63;;;0.28;93.93
23176;BME280;19910;42.652;23.332;2023-01-28T00:53:43;94051.38;;;0.11;93.11
23176;BME280;19910;42.652;23.332;2023-01-28T00:56:12;94055.63;;;0.12;93.51
23176;BME280;19910;42.652;23.332;2023-01-28T00:58:39;94054.34;;;0.05;93.57
23176;BME280;19910;42.652;23.332;2023-01-28T01:01:09;94053.72;;;0.18;93.95
23176;BME280;19910;42.652;23.332;2023-01-28T01:03:36;94048.50;;;0.03;93.88
23176;BME280;19910;42.652;23.332;2023-01-28T01:06:04;94059.03;;;0.18;94.09
23176;BME280;19910;42.652;23.332;2023-01-28T01:08:32;94052.19;;;0.12;93.35
23176;BME280;19910;42.652;23.332;2023-01-28T01:11:05;94042.63;;;0.06;93.77
23176;BME280;19910;42.652;23.332;2023-01-28T01:13:33;94052.09;;;0.22;93.57
23176;BME280;19910;42.652;23.332;2023-01-28T01:16:01;94050.44;;;0.31;93.53
23176;BME280;19910;42.652;23.332;2023-01-28T01:18:28;94050.25;;;0.17;93.02
23176;BME280;19910;42.652;23.332;2023-01-28T01:20:55;94060.13;;;0.17;93.74
23176;BME280;19910;42.652;23.332;2023-01-28T01:23:24;94057.34;;;0.32;93.77
23176;BME280;19910;42.652;23.332;2023-01-28T01:25:52;94057.59;;;0.35;93.36
23176;BME280;19910;42.652;23.332;2023-01-28T01:28:19;94063.22;;;0.29;92.98
23176;BME280;19910;42.652;23.332;2023-01-28T01:30:46;94055.84;;;0.21;92.97
23176;BME280;19910;42.652;23.332;2023-01-28T01:33:13;94055.91;;;0.11;93.18
23176;BME280;19910;42.652;23.332;2023-01-28T01:35:41;94062.25;;;0.15;93.75
23176;BME280;19910;42.652;23.332;2023-01-28T01:38:08;94064.44;;;0.13;93.88
23176;BME280;19910;42.652;23.332;2023-01-28T01:40:34;94057.88;;;-0.05;93.97
23176;BME280;19910;42.652;23.332;2023-01-28T01:43:13;94065.38;;;-0.17;94.40
23176;BME280;19910;42.652;23.332;2023-01-28T01:45:41;94059.81;;;-0.16;94.83
23176;BME280;19910;42.652;23.332;2023-01-28T01:48:14;94061.31;;;-0.05;95.04
23176;BME280;19910;42.652;23.332;2023-01-28T01:50:46;94070.09;;;-0.04;94.37
23176;BME280;19910;42.652;23.332;2023-01-28T01:53:16;94058.91;;;-0.01;94.05
23176;BME280;19910;42.652;23.332;2023-01-28T01:55:46;94053.09;;;-0.08;94.59
23176;BME280;19910;42.652;23.332;2023-01-28T01:58:18;94057.13;;;-0.16;94.21
23176;BME280;19910;42.652;23.332;2023-01-28T02:00:47;94065.59;;;-0.04;94.54
23176;BME280;19910;42.652;23.332;2023-01-28T02:03:16;94077.63;;;-0.16;94.70
23176;BME280;19910;42.652;23.332;2023-01-28T02:05:45;94072.00;;;-0.10;94.70
23176;BME280;19910;42.652;23.332;2023-01-28T02:08:11;94073.56;;;-0.04;95.21
23176;BME280;19910;42.652;23.332;2023-01-28T02:10:48;94075.25;;;-0.18;94.78
23176;BME280;19910;42.652;23.332;2023-01-28T02:13:18;94072.53;;;-0.13;95.21
23176;BME280;19910;42.652;23.332;2023-01-28T02:15:47;94070.41;;;-0.11;94.51
23176;BME280;19910;42.652;23.332;2023-01-28T02:18:15;94082.88;;;-0.01;94.50
23176;BME280;19910;42.652;23.332;2023-01-28T02:20:59;94064.78;;;-0.04;95.22
23176;BME280;19910;42.652;23.332;2023-01-28T02:23:43;94079.97;;;-0.10;94.33
23176;BME280;19910;42.652;23.332;2023-01-28T02:26:36;94075.91;;;0.03;93.88
23176;BME280;19910;42.652;23.332;2023-01-28T02:29:12;94086.00;;;0.06;93.63
23176;BME280;19910;42.652;23.332;2023-01-28T02:31:44;94082.34;;;-0.03;93.63
23176;BME280;19910;42.652;23.332;2023-01-28T02:34:19;94079.91;;;0.00;94.70
23176;BME280;19910;42.652;23.332;2023-01-28T02:36:53;94078.91;;;-0.09;93.62
23176;BME280;19910;42.652;23.332;2023-01-28T02:39:23;94076.19;;;0.02;93.68
23176;BME280;19910;42.652;23.332;2023-01-28T02:41:54;94078.31;;;0.05;93.15
23176;BME280;19910;42.652;23.332;2023-01-28T02:44:24;94085.81;;;-0.08;93.78
23176;BME280;19910;42.652;23.332;2023-01-28T02:46:51;94082.09;;;-0.07;93.74
23176;BME280;19910;42.652;23.332;2023-01-28T02:49:38;94084.22;;;-0.09;93.12
23176;BME280;19910;42.652;23.332;2023-01-28T02:52:24;94083.75;;;-0.16;93.37
23176;BME280;19910;42.652;23.332;2023-01-28T02:55:14;94082.09;;;-0.07;93.37
23176;BME280;19910;42.652;23.332;2023-01-28T02:57:47;94084.53;;;-0.15;93.57
23176;BME280;19910;42.652;23.332;2023-01-28T03:00:22;94087.50;;;-0.22;93.51
23176;BME280;19910;42.652;23.332;2023-01-28T03:02:57;94075.72;;;-0.11;93.40
23176;BME280;19910;42.652;23.332;2023-01-28T03:05:30;94080.28;;;-0.16;93.60
23176;BME280;19910;42.652;23.332;2023-01-28T03:07:59;94089.56;;;-0.09;93.82
23176;BME280;19910;42.652;23.332;2023-01-28T03:10:46;94079.03;;;-0.29;93.74
23176;BME280;19910;42.652;23.332;2023-01-28T03:13:30;94091.22;;;-0.18;93.96
23176;BME280;19910;42.652;23.332;2023-01-28T03:16:16;94089.63;;;-0.19;93.62
23176;BME280;19910;42.652;23.332;2023-01-28T03:19:01;94082.69;;;-0.15;93.62
23176;BME280;19910;42.652;23.332;2023-01-28T03:21:47;94089.03;;;-0.11;93.36
23176;BME280;19910;42.652;23.332;2023-01-28T03:24:34;94106.31;;;-0.08;93.51
23176;BME280;19910;42.652;23.332;2023-01-28T03:27:26;94091.69;;;-0.11;93.25
23176;BME280;19910;42.652;23.332;2023-01-28T03:30:15;94093.31;;;-0.15;93.10
23176;BME280;19910;42.652;23.332;2023-01-28T03:33:02;94094.41;;;-0.16;93.31
23176;BME280;19910;42.652;23.332;2023-01-28T03:35:47;94095.47;;;-0.22;92.82
23176;BME280;19910;42.652;23.332;2023-01-28T03:38:32;94103.44;;;-0.17;93.59
23176;BME280;19910;42.652;23.332;2023-01-28T03:41:07;94099.19;;;-0.18;93.51
23176;BME280;19910;42.652;23.332;2023-01-28T03:43:35;94104.25;;;-0.16;93.86
23176;BME280;19910;42.652;23.332;2023-01-28T03:46:02;94107.09;;;-0.03;93.76
23176;BME280;19910;42.652;23.332;2023-01-28T03:48:32;94105.53;;;-0.09;93.65
23176;BME280;19910;42.652;23.332;2023-01-28T03:50:58;94103.88;;;0.00;93.60
23176;BME280;19910;42.652;23.332;2023-01-28T03:53:26;94098.53;;;0.00;93.24
23176;BME280;19910;42.652;23.332;2023-01-28T03:55:53;94102.34;;;-0.11;93.03
23176;BME280;19910;42.652;23.332;2023-01-28T03:58:21;94110.91;;;-0.19;93.40
23176;BME280;19910;42.652;23.332;2023-01-28T04:00:51;94110.31;;;-0.11;93.45
23176;BME280;19910;42.652;23.332;2023-01-28T04:03:20;94114.09;;;-0.17;93.88
23176;BME280;19910;42.652;23.332;2023-01-28T04:05:59;94123.09;;;-0.08;93.08
23176;BME280;19910;42.652;23.332;2023-01-28T04:08:26;94110.06;;;-0.09;92.88
23176;BME280;19910;42.652;23.332;2023-01-28T04:10:53;94120.47;;;-0.18;93.02
23176;BME280;19910;42.652;23.332;2023-01-28T04:13:20;94118.88;;;-0.14;93.10
23176;BME280;19910;42.652;23.332;2023-01-28T04:15:47;94107.19;;;-0.18;92.74
23176;BME280;19910;42.652;23.332;2023-01-28T04:18:14;94120.22;;;-0.16;91.81
23176;BME280;19910;42.652;23.332;2023-01-28T04:20:40;94131.66;;;-0.21;92.03
23176;BME280;19910;42.652;23.332;2023-01-28T04:23:09;94126.34;;;-0.26;92.18
23176;BME280;19910;42.652;23.332;2023-01-28T04:25:35;94135.13;;;-0.20;92.63
23176;BME280;19910;42.652;23.332;2023-01-28T04:28:02;94133.28;;;-0.25;92.63
23176;BME280;19910;42.652;23.332;2023-01-28T04:30:29;94129.59;;;-0.34;93.11
23176;BME280;19910;42.652;23.332;2023-01-28T04:32:56;94136.72;;;-0.19;93.39
23176;BME280;19910;42.652;23.332;2023-01-28T04:35:22;94141.19;;;-0.10;93.40
23176;BME280;19910;42.652;23.332;2023-01-28T04:37:49;94131.94;;;-0.22;93.72
23176;BME280;19910;42.652;23.332;2023-01-28T04:40:18;94140.72;;;-0.27;93.56
23176;BME280;19910;42.652;23.332;2023-01-28T04:42:52;94144.75;;;-0.34;93.90
23176;BME280;19910;42.652;23.332;2023-01-28T04:45:18;94149.81;;;-0.38;94.30
23176;BME280;19910;42.652;23.332;2023-01-28T04:47:45;94149.28;;;-0.35;94.58
23176;BME280;19910;42.652;23.332;2023-01-28T04:50:12;94146.09;;;-0.37;94.44
23176;BME280;19910;42.652;23.332;2023-01-28T04:52:39;94156.72;;;-0.32;95.13
23176;BME280;19910;42.652;23.332;2023-01-28T04:55:06;94162.53;;;-0.20;95.37
23176;BME280;19910;42.652;23.332;2023-01-28T04:57:34;94155.13;;;-0.28;94.48
23176;BME280;19910;42.652;23.332;2023-01-28T05:00:01;94162.00;;;-0.27;94.86
23176;BME280;19910;42.652;23.332;2023-01-28T05:02:28;94158.81;;;-0.19;95.49
23176;BME280;19910;42.652;23.332;2023-01-28T05:04:55;94162.81;;;-0.26;95.43
23176;BME280;19910;42.652;23.332;2023-01-28T05:07:22;94164.19;;;-0.39;95.37
23176;BME280;19910;42.652;23.332;2023-01-28T05:09:48;94160.19;;;-0.31;95.33
23176;BME280;19910;42.652;23.332;2023-01-28T05:12:15;94172.19;;;-0.44;95.58
23176;BME280;19910;42.652;23.332;2023-01-28T05:14:43;94183.41;;;-0.57;95.81
23176;BME280;19910;42.652;23.332;2023-01-28T05:17:10;94176.72;;;-0.45;96.62
23176;BME280;19910;42.652;23.332;2023-01-28T05:19:37;94178.03;;;-0.52;96.48
23176;BME280;19910;42.652;23.332;2023-01-28T05:22:03;94183.63;;;-0.49;96.06
23176;BME280;19910;42.652;23.332;2023-01-28T05:24:30;94191.34;;;-0.42;95.55
23176;BME280;19910;42.652;23.332;2023-01-28T05:26:57;94175.88;;;-0.35;95.61
23176;BME280;19910;42.652;23.332;2023-01-28T05:29:24;94188.69;;;-0.42;94.47
23176;BME280;19910;42.652;23.332;2023-01-28T05:31:52;94189.19;;;-0.35;94.63
23176;BME280;19910;42.652;23.332;2023-01-28T05:34:19;94179.59;;;-0.36;93.88
23176;BME280;19910;42.652;23.332;2023-01-28T05:36:45;94186.53;;;-0.35;93.09
23176;BME280;19910;42.652;23.332;2023-01-28T05:39:12;94196.63;;;-0.37;92.96
23176;BME280;19910;42.652;23.332;2023-01-28T05:41:39;94190.25;;;-0.36;93.22
23176;BME280;19910;42.652;23.332;2023-01-28T05:44:06;94196.09;;;-0.29;93.13
23176;BME280;19910;42.652;23.332;2023-01-28T05:46:32;94193.94;;;-0.17;93.07
23176;BME280;19910;42.652;23.332;2023-01-28T05:49:00;94199.75;;;-0.05;92.79
23176;BME280;19910;42.652;23.332;2023-01-28T05:51:27;94192.31;;;-0.13;92.41
23176;BME280;19910;42.652;23.332;2023-01-28T05:53:54;94192.56;;;-0.09;92.36
23176;BME280;19910;42.652;23.332;2023-01-28T05:56:21;94200.28;;;-0.13;92.28
23176;BME280;19910;42.652;23.332;2023-01-28T05:58:47;94195.00;;;-0.23;92.45
23176;BME280;19910;42.652;23.332;2023-01-28T06:01:14;94196.66;;;-0.42;92.58
23176;BME280;19910;42.652;23.332;2023-01-28T06:03:41;94201.97;;;-0.32;92.32
23176;BME280;19910;42.652;23.332;2023-01-28T06:06:09;94213.91;;;-0.24;92.64
23176;BME280;19910;42.652;23.332;2023-01-28T06:08:36;94209.91;;;-0.27;91.99
23176;BME280;19910;42.652;23.332;2023-01-28T06:11:03;94222.69;;;-0.24;92.01
23176;BME280;19910;42.652;23.332;2023-01-28T06:13:29;94221.63;;;-0.23;92.09
23176;BME280;19910;42.652;23.332;2023-01-28T06:15:56;94233.88;;;-0.32;91.75
23176;BME280;19910;42.652;23.332;2023-01-28T06:18:23;94234.94;;;-0.28;92.43
23176;BME280;19910;42.652;23.332;2023-01-28T06:20:50;94235.44;;;-0.21;92.57
23176;BME280;19910;42.652;23.332;2023-01-28T06:23:18;94239.22;;;-0.32;92.66
23176;BME280;19910;42.652;23.332;2023-01-28T06:25:45;94249.28;;;-0.19;92.47
23176;BME280;19910;42.652;23.332;2023-01-28T06:28:12;94236.81;;;-0.39;92.81
23176;BME280;19910;42.652;23.332;2023-01-28T06:30:39;94254.63;;;-0.29;92.22
23176;BME280;19910;42.652;23.332;2023-01-28T06:33:05;94258.88;;;-0.23;92.68
23176;BME280;19910;42.652;23.332;2023-01-28T06:35:32;94249.56;;;-0.15;93.26
23176;BME280;19910;42.652;23.332;2023-01-28T06:37:59;94255.38;;;-0.13;92.99
23176;BME280;19910;42.652;23.332;2023-01-28T06:40:27;94267.34;;;-0.01;93.14
23176;BME280;19910;42.652;23.332;2023-01-28T06:42:54;94259.34;;;0.05;91.72
23176;BME280;19910;42.652;23.332;2023-01-28T06:45:20;94264.13;;;0.08;91.58
23176;BME280;19910;42.652;23.332;2023-01-28T06:47:47;94266.81;;;-0.08;91.50
23176;BME280;19910;42.652;23.332;2023-01-28T06:50:14;94276.94;;;-0.05;91.88
23176;BME280;19910;42.652;23.332;2023-01-28T06:52:41;94280.66;;;-0.06;91.83
23176;BME280;19910;42.652;23.332;2023-01-28T06:55:08;94282.78;;;-0.08;91.88
23176;BME280;19910;42.652;23.332;2023-01-28T06:57:38;94282.25;;;-0.05;92.09
23176;BME280;19910;42.652;23.332;2023-01-28T07:00:06;94290.78;;;-0.03;91.22
23176;BME280;19910;42.652;23.332;2023-01-28T07:02:34;94292.88;;;0.06;91.72
23176;BME280;19910;42.652;23.332;2023-01-28T07:05:01;94289.22;;;-0.14;92.05
23176;BME280;19910;42.652;23.332;2023-01-28T07:07:28;94298.25;;;-0.15;91.95
23176;BME280;19910;42.652;23.332;2023-01-28T07:09:55;94291.84;;;-0.09;91.51
23176;BME280;19910;42.652;23.332;2023-01-28T07:12:21;94297.19;;;-0.19;92.05
23176;BME280;19910;42.652;23.332;2023-01-28T07:14:50;94294.25;;;-0.12;92.18
23176;BME280;19910;42.652;23.332;2023-01-28T07:17:16;94304.63;;;-0.11;91.75
23176;BME280;19910;42.652;23.332;2023-01-28T07:19:43;94313.69;;;-0.02;91.71
23176;BME280;19910;42.652;23.332;2023-01-28T07:22:10;94312.59;;;0.05;91.79
23176;BME280;19910;42.652;23.332;2023-01-28T07:24:36;94316.84;;;0.11;91.52
23176;BME280;19910;42.652;23.332;2023-01-28T07:27:03;94312.59;;;0.05;91.12
23176;BME280;19910;42.652;23.332;2023-01-28T07:29:30;94323.22;;;0.05;91.32
23176;BME280;19910;42.652;23.332;2023-01-28T07:31:59;94317.94;;;-0.01;91.25
23176;BME280;19910;42.652;23.332;2023-01-28T07:34:26;94326.97;;;-0.07;91.36
23176;BME280;19910;42.652;23.332;2023-01-28T07:36:53;94334.69;;;-0.05;91.48
23176;BME280;19910;42.652;23.332;2023-01-28T07:39:20;94336.31;;;-0.04;91.72
23176;BME280;19910;42.652;23.332;2023-01-28T07:41:47;94336.25;;;0.16;91.35
23176;BME280;19910;42.652;23.332;2023-01-28T07:44:13;94336.53;;;0.10;91.27
23176;BME280;19910;42.652;23.332;2023-01-28T07:46:40;94342.41;;;0.07;90.59
23176;BME280;19910;42.652;23.332;2023-01-28T07:49:08;94341.34;;;-0.08;90.83
23176;BME280;19910;42.652;23.332;2023-01-28T07:51:35;94348.78;;;0.11;90.64
23176;BME280;19910;42.652;23.332;2023-01-28T07:54:04;94346.63;;;0.18;89.84
23176;BME280;19910;42.652;23.332;2023-01-28T07:56:31;94346.03;;;0.41;90.18
23176;BME280;19910;42.652;23.332;2023-01-28T07:58:58;94344.97;;;0.52;89.29
23176;BME280;19910;42.652;23.332;2023-01-28T08:01:27;94345.50;;;0.49;88.50
23176;BME280;19910;42.652;23.332;2023-01-28T08:03:54;94352.38;;;0.60;88.28
23176;BME280;19910;42.652;23.332;2023-01-28T08:06:22;94347.06;;;0.60;88.14
23176;BME280;19910;42.652;23.332;2023-01-28T08:08:49;94351.41;;;0.36;89.19
23176;BME280;19910;42.652;23.332;2023-01-28T08:11:16;94351.06;;;0.58;88.72
23176;BME280;19910;42.652;23.332;2023-01-28T08:13:42;94344.47;;;0.30;88.25
23176;BME280;19910;42.652;23.332;2023-01-28T08:16:09;94345.00;;;0.37;88.69
23176;BME280;19910;42.652;23.332;2023-01-28T08:18:36;94348.38;;;0.58;88.32
23176;BME280;19910;42.652;23.332;2023-01-28T08:21:02;94352.84;;;0.78;87.07
23176;BME280;19910;42.652;23.332;2023-01-28T08:23:31;94362.78;;;0.67;87.88
23176;BME280;19910;42.652;23.332;2023-01-28T08:25:59;94368.91;;;0.67;87.29
23176;BME280;19910;42.652;23.332;2023-01-28T08:28:26;94358.72;;;0.75;87.04
23176;BME280;19910;42.652;23.332;2023-01-28T08:30:53;94360.78;;;0.93;86.78
23176;BME280;19910;42.652;23.332;2023-01-28T08:33:19;94359.72;;;0.94;86.82
23176;BME280;19910;42.652;23.332;2023-01-28T08:35:46;94363.97;;;0.95;86.24
23176;BME280;19910;42.652;23.332;2023-01-28T08:38:13;94356.19;;;1.03;86.57
23176;BME280;19910;42.652;23.332;2023-01-28T08:40:43;94355.06;;;0.55;87.20
23176;BME280;19910;42.652;23.332;2023-01-28T08:43:10;94359.53;;;0.75;87.22
23176;BME280;19910;42.652;23.332;2023-01-28T08:45:38;94367.13;;;1.07;86.50
23176;BME280;19910;42.652;23.332;2023-01-28T08:48:07;94361.72;;;1.22;85.82
23176;BME280;19910;42.652;23.332;2023-01-28T08:50:38;94362.97;;;1.30;85.34
23176;BME280;19910;42.652;23.332;2023-01-28T08:53:10;94356.25;;;1.37;84.77
23176;BME280;19910;42.652;23.332;2023-01-28T08:55:37;94374.28;;;1.61;84.07
23176;BME280;19910;42.652;23.332;2023-01-28T08:58:09;94365.03;;;1.43;84.13
23176;BME280;19910;42.652;23.332;2023-01-28T09:00:36;94367.53;;;1.29;84.97
23176;BME280;19910;42.652;23.332;2023-01-28T09:03:04;94360.06;;;1.26;85.11
23176;BME280;19910;42.652;23.332;2023-01-28T09:05:30;94372.19;;;1.53;84.48
23176;BME280;19910;42.652;23.332;2023-01-28T09:08:00;94366.88;;;1.48;84.88
23176;BME280;19910;42.652;23.332;2023-01-28T09:10:30;94366.19;;;1.71;83.81
23176;BME280;19910;42.652;23.332;2023-01-28T09:12:57;94361.13;;;1.25;84.06
23176;BME280;19910;42.652;23.332;2023-01-28T09:15:25;94372.41;;;1.17;84.71
23176;BME280;19910;42.652;23.332;2023-01-28T09:17:56;94370.41;;;0.89;85.46
23176;BME280;19910;42.652;23.332;2023-01-28T09:20:24;94374.66;;;0.95;86.53
23176;BME280;19910;42.652;23.332;2023-01-28T09:22:51;94373.28;;;1.02;85.68
23176;BME280;19910;42.652;23.332;2023-01-28T09:25:17;94385.94;;;1.26;85.67
23176;BME280;19910;42.652;23.332;2023-01-28T09:27:44;94365.94;;;1.23;86.20
23176;BME280;19910;42.652;23.332;2023-01-28T09:30:11;94367.97;;;1.47;85.07
23176;BME280;19910;42.652;23.332;2023-01-28T09:32:40;94366.19;;;1.27;85.03
23176;BME280;19910;42.652;23.332;2023-01-28T09:35:07;94368.16;;;1.11;86.11
23176;BME280;19910;42.652;23.332;2023-01-28T09:37:34;94369.94;;;1.26;85.05
23176;BME280;19910;42.652;23.332;2023-01-28T09:40:02;94367.47;;;1.39;85.32
23176;BME280;19910;42.652;23.332;2023-01-28T09:42:50;94361.00;;;1.01;85.72
23176;BME280;19910;42.652;23.332;2023-01-28T09:45:23;94372.41;;;1.17;85.71
23176;BME280;19910;42.652;23.332;2023-01-28T09:47:54;94363.50;;;1.32;85.52
23176;BME280;19910;42.652;23.332;2023-01-28T09:50:25;94362.13;;;1.39;85.84
23176;BME280;19910;42.652;23.332;2023-01-28T09:52:56;94373.25;;;1.52;85.25
23176;BME280;19910;42.652;23.332;2023-01-28T09:55:30;94371.19;;;1.43;85.65
23176;BME280;19910;42.652;23.332;2023-01-28T09:57:57;94358.00;;;1.18;85.52
23176;BME280;19910;42.652;23.332;2023-01-28T10:00:29;94362.31;;;1.09;86.55
23176;BME280;19910;42.652;23.332;2023-01-28T10:03:13;94365.38;;;1.36;86.27
23176;BME280;19910;42.652;23.332;2023-01-28T10:05:50;94369.75;;;1.12;87.27
23176;BME280;19910;42.652;23.332;2023-01-28T10:08:30;94364.53;;;0.92;86.77
23176;BME280;19910;42.652;23.332;2023-01-28T10:11:09;94363.88;;;1.10;86.91
23176;BME280;19910;42.652;23.332;2023-01-28T10:13:43;94356.38;;;1.22;86.81
23176;BME280;19910;42.652;23.332;2023-01-28T10:16:20;94357.13;;;1.28;87.44
23176;BME280;19910;42.652;23.332;2023-01-28T10:18:53;94354.78;;;1.21;86.23
23176;BME280;19910;42.652;23.332;2023-01-28T10:21:26;94358.53;;;1.20;86.88
23176;BME280;19910;42.652;23.332;2023-01-28T10:23:59;94356.97;;;1.09;86.88
23176;BME280;19910;42.652;23.332;2023-01-28T10:26:32;94358.59;;;1.05;87.63
23176;BME280;19910;42.652;23.332;2023-01-28T10:29:04;94362.47;;;1.28;86.86
23176;BME280;19910;42.652;23.332;2023-01-28T10:31:39;94358.78;;;1.63;86.68
23176;BME280;19910;42.652;23.332;2023-01-28T10:34:09;94357.00;;;1.82;85.27
23176;BME280;19910;42.652;23.332;2023-01-28T10:36:36;94368.31;;;1.69;85.07
23176;BME280;19910;42.652;23.332;2023-01-28T10:39:03;94363.19;;;1.38;86.81
23176;BME280;19910;42.652;23.332;2023-01-28T10:41:31;94362.56;;;1.52;86.84
23176;BME280;19910;42.652;23.332;2023-01-28T10:43:58;94360.13;;;1.60;85.90
23176;BME280;19910;42.652;23.332;2023-01-28T10:46:28;94356.97;;;1.53;85.34
23176;BME280;19910;42.652;23.332;2023-01-28T10:49:00;94351.75;;;1.72;84.76
23176;BME280;19910;42.652;23.332;2023-01-28T10:51:34;94348.97;;;1.87;84.74
23176;BME280;19910;42.652;23.332;2023-01-28T10:54:13;94348.41;;;1.90;83.47
23176;BME280;19910;42.652;23.332;2023-01-28T10:56:43;94357.81;;;1.83;83.86
23176;BME280;19910;42.652;23.332;2023-01-28T10:59:19;94353.81;;;1.80;84.14
23176;BME280;19910;42.652;23.332;2023-01-28T11:01:49;94357.66;;;1.69;85.32
23176;BME280;19910;42.652;23.332;2023-01-28T11:04:18;94346.38;;;1.77;84.86
23176;BME280;19910;42.652;23.332;2023-01-28T11:06:59;94350.22;;;1.95;84.02
23176;BME280;19910;42.652;23.332;2023-01-28T11:09:28;94346.63;;;2.09;83.52
23176;BME280;19910;42.652;23.332;2023-01-28T11:11:56;94350.50;;;1.93;82.63
23176;BME280;19910;42.652;23.332;2023-01-28T11:14:24;94348.31;;;1.66;84.05
23176;BME280;19910;42.652;23.332;2023-01-28T11:16:53;94344.81;;;1.71;83.26
23176;BME280;19910;42.652;23.332;2023-01-28T11:19:27;94352.88;;;1.66;83.77
23176;BME280;19910;42.652;23.332;2023-01-28T11:21:57;94351.13;;;1.85;83.02
23176;BME280;19910;42.652;23.332;2023-01-28T11:24:27;94342.03;;;1.86;82.46
23176;BME280;19910;42.652;23.332;2023-01-28T11:26:57;94356.56;;;1.70;82.63
23176;BME280;19910;42.652;23.332;2023-01-28T11:29:28;94347.22;;;1.72;82.49
23176;BME280;19910;42.652;23.332;2023-01-28T11:31:57;94337.38;;;1.68;83.56
23176;BME280;19910;42.652;23.332;2023-01-28T11:34:26;94335.00;;;1.95;82.91
23176;BME280;19910;42.652;23.332;2023-01-28T11:37:01;94339.78;;;1.98;82.63
23176;BME280;19910;42.652;23.332;2023-01-28T11:39:30;94345.34;;;1.73;82.27
23176;BME280;19910;42.652;23.332;2023-01-28T11:42:17;94341.47;;;1.89;82.27
23176;BME280;19910;42.652;23.332;2023-01-28T11:44:45;94344.34;;;1.98;82.03
23176;BME280;19910;42.652;23.332;2023-01-28T11:47:23;94338.34;;;2.11;81.44
23176;BME280;19910;42.652;23.332;2023-01-28T11:50:10;94344.06;;;1.99;81.58
23176;BME280;19910;42.652;23.332;2023-01-28T11:52:52;94344.28;;;1.74;81.52
23176;BME280;19910;42.652;23.332;2023-01-28T11:55:33;94337.97;;;1.60;81.98
23176;BME280;19910;42.652;23.332;2023-01-28T11:58:09;94336.69;;;1.86;81.58
23176;BME280;19910;42.652;23.332;2023-01-28T12:00:44;94339.47;;;2.05;80.77
23176;BME280;19910;42.652;23.332;2023-01-28T12:03:30;94331.16;;;2.06;80.33
23176;BME280;19910;42.652;23.332;2023-01-28T12:06:15;94340.59;;;1.99;80.35
23176;BME280;19910;42.652;23.332;2023-01-28T12:08:57;94345.38;;;1.68;80.42
23176;BME280;19910;42.652;23.332;2023-01-28T12:11:32;94346.16;;;1.68;81.44
23176;BME280;19910;42.652;23.332;2023-01-28T12:14:25;94345.94;;;1.99;80.69
23176;BME280;19910;42.652;23.332;2023-01-28T12:17:06;94339.09;;;1.88;80.80
23176;BME280;19910;42.652;23.332;2023-01-28T12:19:46;94346.72;;;1.99;80.16
23176;BME280;19910;42.652;23.332;2023-01-28T12:25:28;94335.50;;;2.02;80.51
23176;BME280;19910;42.652;23.332;2023-01-28T12:28:06;94341.38;;;1.99;81.44
23176;BME280;19910;42.652;23.332;2023-01-28T12:30:51;94343.53;;;1.97;79.86
23176;BME280;19910;42.652;23.332;2023-01-28T12:33:40;94346.81;;;1.89;80.34
23176;BME280;19910;42.652;23.332;2023-01-28T12:36:22;94346.38;;;1.77;81.24
23176;BME280;19910;42.652;23.332;2023-01-28T12:39:02;94353.66;;;2.00;81.08
23176;BME280;19910;42.652;23.332;2023-01-28T12:41:40;94353.94;;;1.99;80.67
23176;BME280;19910;42.652;23.332;2023-01-28T12:44:18;94352.78;;;2.10;81.58
23176;BME280;19910;42.652;23.332;2023-01-28T12:46:48;94353.00;;;2.13;80.63
23176;BME280;19910;42.652;23.332;2023-01-28T12:49:20;94357.19;;;2.48;79.80
23176;BME280;19910;42.652;23.332;2023-01-28T12:51:56;94361.19;;;1.93;80.27
23176;BME280;19910;42.652;23.332;2023-01-28T12:54:29;94366.03;;;1.91;80.75
23176;BME280;19910;42.652;23.332;2023-01-28T12:57:01;94364.13;;;1.92;81.13
23176;BME280;19910;42.652;23.332;2023-01-28T12:59:33;94368.00;;;2.09;81.15
23176;BME280;19910;42.652;23.332;2023-01-28T13:02:20;94372.81;;;2.07;81.09
23176;BME280;19910;42.652;23.332;2023-01-28T13:04:52;94369.13;;;1.69;81.38
23176;BME280;19910;42.652;23.332;2023-01-28T13:07:31;94367.25;;;1.70;81.25
23176;BME280;19910;42.652;23.332;2023-01-28T13:10:05;94366.47;;;1.64;81.84
23176;BME280;19910;42.652;23.332;2023-01-28T13:12:38;94381.78;;;1.54;82.17
23176;BME280;19910;42.652;23.332;2023-01-28T13:15:10;94385.94;;;1.70;81.22
23176;BME280;19910;42.652;23.332;2023-01-28T13:17:37;94387.66;;;1.51;82.11